createdAt,value
2023-01-04T06:05:38.347Z,1.10
2023-01-04T06:15:47.305Z,1.30
2023-01-04T06:25:55.697Z,0.90
2023-01-04T06:36:02.533Z,0.90
2023-01-04T06:46:10.963Z,1.00
2023-01-04T06:56:17.767Z,0.70
2023-01-04T07:06:26.215Z,0.90
2023-01-04T07:16:33.343Z,0.77
2023-01-04T07:26:41.805Z,0.80
2023-01-04T07:36:49.630Z,0.60
2023-01-04T07:46:59.266Z,0.82
2023-01-04T07:57:06.207Z,0.70
2023-01-04T08:07:14.731Z,0.88
2023-01-04T08:17:22.537Z,0.88
2023-01-04T08:27:30.973Z,0.70
2023-01-04T08:37:37.664Z,0.85
2023-01-04T08:47:45.928Z,0.60
2023-01-04T08:57:52.608Z,0.60
2023-01-04T09:08:03.239Z,0.73
2023-01-04T09:18:31.933Z,0.77
2023-01-04T09:28:41.112Z,0.45
2023-01-04T09:38:47.784Z,0.70
2023-01-04T09:49:04.772Z,0.75
2023-01-04T09:59:17.689Z,0.60
2023-01-04T10:09:26.125Z,0.50
2023-01-04T10:30:33.267Z,0.65
2023-01-04T10:40:43.191Z,0.60
2023-01-04T10:50:58.304Z,0.73
2023-01-04T11:01:32.927Z,0.60
2023-01-04T11:11:45.975Z,0.52
2023-01-04T11:21:59.235Z,0.68
2023-01-04T11:32:17.744Z,0.50
2023-01-04T11:42:26.614Z,0.70
2023-01-04T11:52:36.552Z,0.60
2023-01-04T12:03:00.563Z,0.52
2023-01-04T12:13:14.166Z,0.60
2023-01-04T12:23:22.863Z,0.63
2023-01-04T12:33:44.301Z,0.70
2023-01-04T12:43:51.265Z,0.55
2023-01-04T12:54:04.670Z,0.50
2023-01-04T13:04:41.535Z,0.63
2023-01-04T13:14:55.510Z,0.60
2023-01-04T13:25:08.238Z,0.50
2023-01-04T13:35:18.303Z,0.50
2023-01-04T13:45:43.560Z,0.52
2023-01-04T13:55:54.897Z,0.50
2023-01-04T14:06:13.894Z,0.60
2023-01-04T14:16:22.471Z,0.60
2023-01-04T14:26:36.899Z,0.68
2023-01-04T14:36:45.947Z,0.50
2023-01-04T14:46:56.704Z,0.50
2023-01-04T14:57:05.702Z,0.60
2023-01-04T15:07:36.204Z,0.50
2023-01-04T15:17:44.791Z,0.80
2023-01-04T15:27:52.702Z,0.70
2023-01-04T15:38:06.914Z,1.00
2023-01-04T15:48:22.133Z,1.10
2023-01-04T15:58:47.223Z,1.27
2023-01-04T16:09:00.540Z,0.82
2023-01-04T16:19:10.577Z,0.80
2023-01-04T16:29:22.979Z,1.00
2023-01-04T16:40:05.244Z,0.90
2023-01-04T16:50:08.412Z,1.05
2023-01-04T17:00:21.778Z,1.17
2023-01-04T17:10:29.797Z,0.90
2023-01-04T17:20:44.945Z,1.20
2023-01-04T17:30:55.241Z,5.60
2023-01-04T17:41:13.029Z,7.13
2023-01-04T17:51:21.548Z,5.18
2023-01-04T18:01:30.663Z,3.20
2023-01-04T18:11:38.228Z,2.70
2023-01-04T18:21:47.512Z,1.50
2023-01-04T18:31:54.933Z,1.30
2023-01-04T18:42:03.349Z,1.00
2023-01-04T18:52:12.029Z,1.00
2023-01-04T19:02:21.847Z,0.93
2023-01-04T19:12:28.740Z,1.10
2023-01-04T19:22:37.351Z,1.10
2023-01-04T19:32:47.462Z,1.30
2023-01-04T19:42:56.184Z,1.20
2023-01-04T19:53:03.607Z,1.20
2023-01-04T20:03:12.290Z,1.15
2023-01-04T20:13:19.199Z,1.20
2023-01-04T20:23:27.964Z,1.20
2023-01-04T20:33:35.019Z,1.20
2023-01-04T20:43:43.647Z,1.00
2023-01-04T20:53:50.354Z,1.15
2023-01-04T21:03:59.208Z,1.23
2023-01-04T21:14:08.335Z,1.60
2023-01-04T21:24:16.900Z,1.35
2023-01-04T21:34:24.317Z,1.33
2023-01-04T21:44:32.696Z,1.30
2023-01-04T21:54:39.746Z,1.33
2023-01-04T22:04:48.665Z,1.20
2023-01-04T22:14:55.704Z,1.00
2023-01-04T22:25:04.329Z,1.23
2023-01-04T22:35:12.456Z,1.10
2023-01-04T22:45:21.139Z,1.00
2023-01-04T22:55:45.842Z,1.48
2023-01-04T23:05:56.368Z,1.40
2023-01-04T23:16:07.904Z,1.45
2023-01-04T23:26:18.145Z,1.23
2023-01-04T23:36:27.674Z,1.30
2023-01-04T23:46:36.057Z,1.65
2023-01-04T23:56:43.152Z,1.70
